Aérodrome :
LOGIN :

S'inscrire | Disclaimer

   EN    FR    IT 

 










Légende :    VFR   VFR Marginal   IFR   IFR Intensif   IFR Très Intensif
Visi : 
Plafond : 
>= 8 km
>= 3000ft
5 à 8 km
1000 à 3000 ft
1500m à 5 km
500 à 1000 ft
800 à 1500m
200 à 500 ft
< 800m
< 200 ft
Symboles :   Orages  Brouillard  Fortes neiges  Fortes précipitations  Vent > 20 kt
SIGMETs :   Divers  Orages  Givrage  Turbulence  Onde Orograph.  Cendres Volcan.






- Altitude de l'aérodrome : 247 ft
- Code IATA : BLL


EKBI - Billund

DERNIER METAR :
  • 202350Z AUTO 18005KT 7000 -RA OVC003/// 05/05 Q1014 RERA

METARs EXPIRÉS :
  • 202320Z AUTO 24005KT 200V280 7000 RA OVC002/// 05/05 Q1014
  • 202250Z AUTO 24005KT 2200 -RA BR OVC003/// 05/05 Q1014 RERA
  • 202220Z AUTO 29005KT 3000 RA OVC003/// 05/05 Q1014
  • 202150Z AUTO 30005KT 4400 DZ BR OVC003/// 05/04 Q1014 RERA

TAF TAF EKBI
Valide du 21 à 00h jusqu'au 22 à 00h UTC


202303Z 2100/2124 25005KT 6000 BKN003
TEMPO 2100/2110 1200 -RADZ BR SCT003 BKN020
BECMG 2103/2105 13010KT
BECMG 2110/2112 BKN020
BECMG 2112/2114 BKN012
BECMG 2114/2116 4000 BR BKN006
TEMPO 2116/2124 1200 -RADZ BKN002



MET'MAP, la Météo Aéronautique d'un coup d'oeil ! - Copyright ORBIFLY Décembre 2007 - Disclaimer

ORBIFLY MET'MAP TEAM :

Programmation & Développement : Alexandra Zaïnal
Conception & Développement : Baudouin d'Aumeries
Co-Programmation & Développement : Marc-Olivier Méhu
Soutien technique & logistique : Manuel Goepfert

Contact : metmap@orbifly.com




SOURCES & CREDITS :

   NOAA